createdAt,value
2022-10-01T00:00:56.747Z,1013.35
2022-10-01T00:01:56.785Z,1013.38
2022-10-01T00:02:56.804Z,1013.37
2022-10-01T00:03:56.740Z,1013.35
2022-10-01T00:04:56.709Z,1013.37
2022-10-01T00:05:56.688Z,1013.40
2022-10-01T00:06:56.666Z,1013.35
2022-10-01T00:07:56.662Z,1013.33
2022-10-01T00:08:56.701Z,1013.36
2022-10-01T00:09:56.654Z,1013.32
2022-10-01T00:10:56.628Z,1013.35
2022-10-01T00:11:56.621Z,1013.36
2022-10-01T00:12:56.586Z,1013.23
2022-10-01T00:13:56.584Z,1013.31
2022-10-01T00:14:56.630Z,1013.27
2022-10-01T00:15:56.562Z,1013.28
2022-10-01T00:16:56.579Z,1013.23
2022-10-01T00:17:56.544Z,1013.24
2022-10-01T00:18:56.526Z,1013.18
2022-10-01T00:19:56.635Z,1013.19
2022-10-01T00:20:56.477Z,1013.19
2022-10-01T00:21:56.492Z,1013.18
2022-10-01T00:22:56.458Z,1013.25
2022-10-01T00:23:56.460Z,1013.21
2022-10-01T00:24:56.464Z,1013.21
2022-10-01T00:25:56.458Z,1013.20
2022-10-01T00:26:56.406Z,1013.24
2022-10-01T00:27:56.429Z,1013.19
2022-10-01T00:28:56.387Z,1013.21
2022-10-01T00:29:56.380Z,1013.25
2022-10-01T00:30:56.418Z,1013.18
2022-10-01T00:31:56.390Z,1013.15
2022-10-01T00:32:56.332Z,1013.22
2022-10-01T00:33:56.324Z,1013.21
2022-10-01T00:34:56.311Z,1013.14
2022-10-01T00:35:56.354Z,1013.20
2022-10-01T00:36:56.282Z,1013.16
2022-10-01T00:37:56.286Z,1013.08
2022-10-01T00:38:56.272Z,1013.10
2022-10-01T00:39:56.251Z,1013.13
2022-10-01T00:40:56.232Z,1013.06
2022-10-01T00:41:56.251Z,1013.02
2022-10-01T00:42:56.197Z,1013.02
2022-10-01T00:43:56.211Z,1013.08
2022-10-01T00:44:56.172Z,1013.04
2022-10-01T00:45:56.223Z,1013.05
2022-10-01T00:46:56.179Z,1012.95
2022-10-01T00:47:56.164Z,1012.92
2022-10-01T00:48:56.121Z,1012.90
2022-10-01T00:49:59.323Z,1012.94
2022-10-01T00:50:56.094Z,1012.90
2022-10-01T00:51:56.112Z,1012.94
2022-10-01T00:52:56.112Z,1012.89
2022-10-01T00:53:56.073Z,1012.86
2022-10-01T00:54:56.059Z,1012.83
2022-10-01T00:55:56.056Z,1012.82
2022-10-01T00:56:56.034Z,1012.86
2022-10-01T00:57:56.038Z,1012.82
2022-10-01T00:58:56.003Z,1012.88
2022-10-01T00:59:55.985Z,1012.79
2022-10-01T01:00:55.999Z,1012.73
2022-10-01T01:01:56.117Z,1012.79
2022-10-01T01:02:55.955Z,1012.73
2022-10-01T01:03:55.973Z,1012.71
2022-10-01T01:04:55.936Z,1012.68
2022-10-01T01:05:55.987Z,1012.63
2022-10-01T01:06:55.905Z,1012.67
2022-10-01T01:07:55.881Z,1012.64
2022-10-01T01:08:55.910Z,1012.62
2022-10-01T01:09:55.856Z,1012.63
2022-10-01T01:10:55.873Z,1012.63
2022-10-01T01:11:55.822Z,1012.62
2022-10-01T01:12:55.828Z,1012.65
2022-10-01T01:13:55.790Z,1012.65
2022-10-01T01:14:55.832Z,1012.62
2022-10-01T01:15:55.817Z,1012.69
2022-10-01T01:16:55.776Z,1012.57
2022-10-01T01:17:55.754Z,1012.53
2022-10-01T01:18:55.745Z,1012.53
2022-10-01T01:19:55.768Z,1012.53
2022-10-01T01:20:55.727Z,1012.49
2022-10-01T01:21:55.706Z,1012.51
2022-10-01T01:22:55.705Z,1012.49
2022-10-01T01:23:55.682Z,1012.42
2022-10-01T01:24:55.670Z,1012.43
2022-10-01T01:25:55.678Z,1012.44
2022-10-01T01:26:55.641Z,1012.42
2022-10-01T01:27:55.676Z,1012.40
2022-10-01T01:28:55.622Z,1012.40
2022-10-01T01:29:55.593Z,1012.48
2022-10-01T01:30:55.710Z,1012.46
2022-10-01T01:31:55.570Z,1012.55
2022-10-01T01:32:55.567Z,1012.48
2022-10-01T01:33:55.548Z,1012.49
2022-10-01T01:34:55.545Z,1012.42
2022-10-01T01:35:55.519Z,1012.46
2022-10-01T01:36:55.548Z,1012.42
2022-10-01T01:37:55.491Z,1012.40
2022-10-01T01:38:55.487Z,1012.39
2022-10-01T01:39:55.472Z,1012.41
2022-10-01T01:40:55.470Z,1012.34
2022-10-01T01:41:55.469Z,1012.27
2022-10-01T01:42:55.438Z,1012.27
2022-10-01T01:43:55.412Z,1012.20
2022-10-01T01:44:55.413Z,1012.11
2022-10-01T01:45:55.528Z,1012.13
2022-10-01T01:46:55.396Z,1012.17
2022-10-01T01:47:55.398Z,1012.14
2022-10-01T01:48:55.361Z,1012.13
2022-10-01T01:49:55.332Z,1012.13
2022-10-01T01:50:55.335Z,1012.13
2022-10-01T01:51:55.308Z,1012.03
2022-10-01T01:52:55.347Z,1011.96
2022-10-01T01:53:55.291Z,1012.00
2022-10-01T01:54:55.278Z,1012.00
2022-10-01T01:55:55.265Z,1011.94
2022-10-01T01:56:55.257Z,1011.94
2022-10-01T01:57:55.249Z,1012.00
2022-10-01T01:58:55.261Z,1011.97
2022-10-01T01:59:55.210Z,1012.01
2022-10-01T02:00:55.203Z,1011.91
2022-10-01T02:01:55.342Z,1012.00
2022-10-01T02:02:55.224Z,1012.00
2022-10-01T02:03:55.275Z,1011.92
2022-10-01T02:04:55.158Z,1011.94
2022-10-01T02:05:55.144Z,1012.03
2022-10-01T02:06:55.189Z,1012.03
2022-10-01T02:07:55.106Z,1011.94
2022-10-01T02:08:55.123Z,1011.95
2022-10-01T02:09:55.147Z,1011.97
2022-10-01T02:10:55.083Z,1012.00
2022-10-01T02:11:55.050Z,1011.97
2022-10-01T02:12:55.063Z,1012.09
2022-10-01T02:13:55.030Z,1012.10
2022-10-01T02:14:55.072Z,1012.05
2022-10-01T02:15:55.113Z,1012.10
2022-10-01T02:16:55.001Z,1012.05
2022-10-01T02:17:54.978Z,1012.04
2022-10-01T02:18:54.971Z,1012.06
2022-10-01T02:19:54.964Z,1012.07
2022-10-01T02:20:55.017Z,1011.99
2022-10-01T02:21:54.942Z,1011.98
2022-10-01T02:22:54.932Z,1011.93
2022-10-01T02:23:54.902Z,1012.00
2022-10-01T02:24:54.904Z,1012.01
2022-10-01T02:25:54.903Z,1012.02
2022-10-01T02:26:54.875Z,1012.04
2022-10-01T02:27:54.908Z,1012.07
2022-10-01T02:28:54.900Z,1012.07
2022-10-01T02:29:54.825Z,1012.06
2022-10-01T02:30:54.903Z,1012.12
2022-10-01T02:31:54.814Z,1012.10
2022-10-01T02:32:54.809Z,1012.09
2022-10-01T02:33:54.767Z,1012.09
2022-10-01T02:34:54.763Z,1012.12
2022-10-01T02:35:54.739Z,1012.09
2022-10-01T02:36:54.789Z,1012.05
2022-10-01T02:37:54.721Z,1012.02
2022-10-01T02:38:54.716Z,1012.00
2022-10-01T02:39:54.699Z,1012.09
2022-10-01T02:40:54.688Z,1012.04
2022-10-01T02:41:54.662Z,1011.99
2022-10-01T02:42:54.690Z,1012.05
2022-10-01T02:43:54.637Z,1012.03
2022-10-01T02:44:54.635Z,1012.03
2022-10-01T02:45:54.662Z,1012.02
2022-10-01T02:46:54.612Z,1012.01
2022-10-01T02:47:54.625Z,1011.98
2022-10-01T02:48:54.586Z,1012.00
2022-10-01T02:49:54.561Z,1012.00
2022-10-01T02:50:54.558Z,1011.97
2022-10-01T02:51:54.533Z,1011.99
2022-10-01T02:52:54.534Z,1011.95
2022-10-01T02:53:54.531Z,1011.91
2022-10-01T02:54:54.503Z,1011.92
2022-10-01T02:55:54.481Z,1011.92
2022-10-01T02:56:56.328Z,1011.93
2022-10-01T02:57:54.466Z,1011.95
2022-10-01T02:58:54.482Z,1011.86
2022-10-01T02:59:54.443Z,1011.88
2022-10-01T03:00:54.447Z,1011.84
2022-10-01T03:01:54.522Z,1011.91
2022-10-01T03:02:54.497Z,1011.89
2022-10-01T03:03:54.377Z,1011.85
2022-10-01T03:04:54.413Z,1011.78
2022-10-01T03:05:54.354Z,1011.78
2022-10-01T03:06:54.362Z,1011.78
2022-10-01T03:07:54.341Z,1011.71
2022-10-01T03:08:54.320Z,1011.72
2022-10-01T03:09:54.343Z,1011.74
2022-10-01T03:10:54.301Z,1011.67
2022-10-01T03:11:54.279Z,1011.65
2022-10-01T03:12:54.270Z,1011.65
2022-10-01T03:13:54.249Z,1011.65
2022-10-01T03:14:54.245Z,1011.68
2022-10-01T03:15:54.316Z,1011.68
2022-10-01T03:16:54.221Z,1011.66
2022-10-01T03:17:54.193Z,1011.56
2022-10-01T03:18:54.199Z,1011.62
2022-10-01T03:19:54.167Z,1011.56
2022-10-01T03:20:54.220Z,1011.63
2022-10-01T03:21:54.149Z,1011.55
2022-10-01T03:22:54.159Z,1011.58
2022-10-01T03:23:54.141Z,1011.54
2022-10-01T03:24:54.120Z,1011.57
2022-10-01T03:25:54.094Z,1011.54
2022-10-01T03:26:54.132Z,1011.44
2022-10-01T03:27:54.113Z,1011.45
2022-10-01T03:28:54.095Z,1011.40
2022-10-01T03:29:54.059Z,1011.42
2022-10-01T03:30:54.142Z,1011.45
2022-10-01T03:31:54.206Z,1011.41
2022-10-01T03:32:54.030Z,1011.38
2022-10-01T03:33:53.991Z,1011.34
2022-10-01T03:34:53.998Z,1011.40
2022-10-01T03:35:53.973Z,1011.37
2022-10-01T03:36:53.979Z,1011.37
2022-10-01T03:37:53.975Z,1011.45
2022-10-01T03:38:53.950Z,1011.42
2022-10-01T03:39:53.914Z,1011.38
2022-10-01T03:40:53.918Z,1011.37
2022-10-01T03:41:53.886Z,1011.36
2022-10-01T03:42:53.938Z,1011.31
2022-10-01T03:43:58.329Z,1011.34
2022-10-01T03:44:53.872Z,1011.29
2022-10-01T03:45:53.852Z,1011.31
2022-10-01T03:46:53.835Z,1011.30
2022-10-01T03:47:53.809Z,1011.26
2022-10-01T03:48:53.835Z,1011.22
2022-10-01T03:49:53.780Z,1011.33
2022-10-01T03:50:53.778Z,1011.22
2022-10-01T03:51:53.753Z,1011.22
2022-10-01T03:52:53.760Z,1011.21
2022-10-01T03:53:53.776Z,1011.11
2022-10-01T03:54:53.741Z,1011.12
2022-10-01T03:55:53.709Z,1011.14
2022-10-01T03:56:53.705Z,1011.13
2022-10-01T03:57:53.677Z,1011.20
2022-10-01T03:58:53.694Z,1011.22
2022-10-01T03:59:53.685Z,1011.06
2022-10-01T04:00:53.654Z,1011.00
2022-10-01T04:01:53.700Z,1011.01
2022-10-01T04:02:53.693Z,1010.96
2022-10-01T04:03:53.600Z,1010.96
2022-10-01T04:04:53.643Z,1010.97
2022-10-01T04:05:53.585Z,1010.92
2022-10-01T04:06:53.586Z,1010.87
2022-10-01T04:07:53.552Z,1010.92
2022-10-01T04:08:53.552Z,1010.89
2022-10-01T04:09:53.527Z,1010.92
2022-10-01T04:10:53.551Z,1010.98
2022-10-01T04:11:53.547Z,1011.07
2022-10-01T04:12:53.504Z,1011.02
2022-10-01T04:13:53.478Z,1010.95
2022-10-01T04:14:53.474Z,1010.98
2022-10-01T04:15:53.522Z,1010.93
2022-10-01T04:16:53.449Z,1010.92
2022-10-01T04:17:53.424Z,1010.89
2022-10-01T04:18:53.433Z,1011.00
2022-10-01T04:19:53.400Z,1010.89
2022-10-01T04:20:53.392Z,1010.94
2022-10-01T04:21:53.391Z,1010.91
2022-10-01T04:22:53.388Z,1010.87
2022-10-01T04:23:53.340Z,1010.90
2022-10-01T04:24:53.345Z,1010.77
2022-10-01T04:25:53.320Z,1010.75
2022-10-01T04:26:53.365Z,1010.81
2022-10-01T04:27:53.343Z,1010.63
2022-10-01T04:28:53.307Z,1010.63
2022-10-01T04:29:53.275Z,1010.72
2022-10-01T04:30:53.270Z,1010.69
2022-10-01T04:31:53.269Z,1010.71
2022-10-01T04:32:53.266Z,1010.72
2022-10-01T04:33:53.209Z,1010.76
2022-10-01T04:34:53.215Z,1010.74
2022-10-01T04:35:53.192Z,1010.70
2022-10-01T04:36:53.187Z,1010.65
2022-10-01T04:37:53.210Z,1010.61
2022-10-01T04:38:55.701Z,1010.58
2022-10-01T04:39:53.147Z,1010.48
2022-10-01T04:40:53.144Z,1010.50
2022-10-01T04:41:53.122Z,1010.60
2022-10-01T04:42:53.117Z,1010.62
2022-10-01T04:43:53.112Z,1010.59
2022-10-01T04:44:53.103Z,1010.58
2022-10-01T04:45:53.064Z,1010.61
2022-10-01T04:46:53.131Z,1010.55
2022-10-01T04:47:53.039Z,1010.59
2022-10-01T04:48:53.089Z,1010.54
2022-10-01T04:49:53.031Z,1010.58
2022-10-01T04:50:53.008Z,1010.60
2022-10-01T04:51:52.983Z,1010.60
2022-10-01T04:52:52.992Z,1010.60
2022-10-01T04:53:52.960Z,1010.60
2022-10-01T04:54:52.992Z,1010.68
2022-10-01T04:55:52.936Z,1010.71
2022-10-01T04:56:52.931Z,1010.74
2022-10-01T04:57:52.909Z,1010.76
2022-10-01T04:58:52.905Z,1010.82
2022-10-01T04:59:52.919Z,1010.67
2022-10-01T05:00:52.914Z,1010.78
2022-10-01T05:01:52.932Z,1010.78
2022-10-01T05:02:52.854Z,1010.75
2022-10-01T05:03:52.833Z,1010.70
2022-10-01T05:04:52.841Z,1010.68
2022-10-01T05:05:52.833Z,1010.65
2022-10-01T05:06:52.807Z,1010.48
2022-10-01T05:07:52.786Z,1010.44
2022-10-01T05:08:52.793Z,1010.49
2022-10-01T05:09:52.800Z,1010.50
2022-10-01T05:10:52.795Z,1010.51
2022-10-01T05:11:52.744Z,1010.58
2022-10-01T05:12:52.733Z,1010.53
2022-10-01T05:13:52.659Z,1010.55
2022-10-01T05:14:52.690Z,1010.50
2022-10-01T05:15:52.744Z,1010.54
2022-10-01T05:16:52.638Z,1010.62
2022-10-01T05:17:52.610Z,1010.61
2022-10-01T05:18:52.587Z,1010.74
2022-10-01T05:19:52.598Z,1010.71
2022-10-01T05:20:52.554Z,1010.69
2022-10-01T05:21:52.601Z,1010.65
2022-10-01T05:22:52.532Z,1010.59
2022-10-01T05:23:52.530Z,1010.51
2022-10-01T05:24:52.507Z,1010.45
2022-10-01T05:25:52.522Z,1010.47
2022-10-01T05:26:52.490Z,1010.37
2022-10-01T05:27:52.547Z,1010.40
2022-10-01T05:28:52.451Z,1010.42
2022-10-01T05:29:52.445Z,1010.48
2022-10-01T05:30:52.451Z,1010.53
2022-10-01T05:31:52.477Z,1010.57
2022-10-01T05:32:52.433Z,1010.62
2022-10-01T05:33:52.406Z,1010.57
2022-10-01T05:34:53.764Z,1010.62
2022-10-01T05:35:52.375Z,1010.56
2022-10-01T05:36:52.372Z,1010.61
2022-10-01T05:37:52.353Z,1010.48
2022-10-01T05:38:52.381Z,1010.51
2022-10-01T05:39:52.339Z,1010.54
2022-10-01T05:40:52.295Z,1010.53
2022-10-01T05:41:52.331Z,1010.54
2022-10-01T05:42:52.273Z,1010.55
2022-10-01T05:43:52.314Z,1010.48
2022-10-01T05:44:52.260Z,1010.49
2022-10-01T05:45:52.303Z,1010.42
2022-10-01T05:46:52.255Z,1010.37
2022-10-01T05:47:52.265Z,1010.45
2022-10-01T05:48:52.271Z,1010.49
2022-10-01T05:49:52.328Z,1010.55
2022-10-01T05:50:52.195Z,1010.52
2022-10-01T05:51:52.196Z,1010.63
2022-10-01T05:52:52.270Z,1010.57
2022-10-01T05:53:52.223Z,1010.40
2022-10-01T05:54:52.221Z,1010.38
2022-10-01T05:55:52.117Z,1010.37
2022-10-01T05:56:52.106Z,1010.40
2022-10-01T05:57:52.097Z,1010.41
2022-10-01T05:58:52.115Z,1010.50
2022-10-01T05:59:52.070Z,1010.58
2022-10-01T06:00:52.093Z,1010.50
2022-10-01T06:01:52.163Z,1010.48
2022-10-01T06:02:52.204Z,1010.49
2022-10-01T06:03:52.046Z,1010.33
2022-10-01T06:04:52.095Z,1010.47
2022-10-01T06:05:51.997Z,1010.43
2022-10-01T06:06:52.025Z,1010.39
2022-10-01T06:07:52.031Z,1010.46
2022-10-01T06:08:51.947Z,1010.29
2022-10-01T06:09:51.991Z,1010.31
2022-10-01T06:10:51.924Z,1010.23
2022-10-01T06:11:51.989Z,1010.21
2022-10-01T06:12:51.973Z,1010.27
2022-10-01T06:13:51.895Z,1010.30
2022-10-01T06:14:51.899Z,1010.35
2022-10-01T06:15:51.866Z,1010.26
2022-10-01T06:16:51.922Z,1010.32
2022-10-01T06:17:51.845Z,1010.44
2022-10-01T06:18:51.955Z,1010.36
2022-10-01T06:19:51.820Z,1010.43
2022-10-01T06:20:51.786Z,1010.43
2022-10-01T06:21:51.810Z,1010.47
2022-10-01T06:22:51.770Z,1010.48
2022-10-01T06:23:51.877Z,1010.58
2022-10-01T06:24:56.006Z,1010.55
2022-10-01T06:25:51.793Z,1010.63
2022-10-01T06:26:51.718Z,1010.65
2022-10-01T06:27:51.816Z,1010.68
2022-10-01T06:28:51.689Z,1010.74
2022-10-01T06:29:51.685Z,1010.66
2022-10-01T06:30:51.771Z,1010.64
2022-10-01T06:31:51.917Z,1010.64
2022-10-01T06:32:51.656Z,1010.74
2022-10-01T06:33:51.629Z,1010.79
2022-10-01T06:34:51.659Z,1010.84
2022-10-01T06:35:51.595Z,1010.70
2022-10-01T06:36:51.658Z,1010.70
2022-10-01T06:37:51.605Z,1010.74
2022-10-01T06:38:51.548Z,1010.65
2022-10-01T06:39:51.554Z,1010.71
2022-10-01T06:40:51.675Z,1010.81
2022-10-01T06:41:51.561Z,1010.80
2022-10-01T06:42:56.021Z,1011.03
2022-10-01T06:43:52.028Z,1010.88
2022-10-01T06:44:51.471Z,1010.81
2022-10-01T06:45:51.627Z,1010.80
2022-10-01T06:46:51.483Z,1010.86
2022-10-01T06:47:51.472Z,1010.84
2022-10-01T06:48:51.530Z,1010.86
2022-10-01T06:49:51.441Z,1010.82
2022-10-01T06:50:51.433Z,1010.83
2022-10-01T06:51:51.425Z,1010.79
2022-10-01T06:52:51.377Z,1010.86
2022-10-01T06:53:51.414Z,1010.79
2022-10-01T06:54:51.557Z,1010.77
2022-10-01T06:55:51.343Z,1010.79
2022-10-01T06:56:51.407Z,1010.70
2022-10-01T06:57:51.384Z,1010.68
2022-10-01T06:58:51.310Z,1010.65
2022-10-01T06:59:51.474Z,1010.62
2022-10-01T07:00:51.346Z,1010.60
2022-10-01T07:01:56.067Z,1010.70
2022-10-01T07:02:51.413Z,1010.85
2022-10-01T07:03:51.247Z,1010.82
2022-10-01T07:04:51.296Z,1010.89
2022-10-01T07:05:51.226Z,1010.89
2022-10-01T07:06:51.267Z,1010.80
2022-10-01T07:07:51.184Z,1010.90
2022-10-01T07:08:51.166Z,1010.85
2022-10-01T07:09:51.216Z,1010.86
2022-10-01T07:10:51.183Z,1010.92
2022-10-01T07:11:51.139Z,1010.85
2022-10-01T07:12:51.112Z,1010.92
2022-10-01T07:13:54.377Z,1010.95
2022-10-01T07:14:51.132Z,1011.01
2022-10-01T07:15:51.089Z,1010.93
2022-10-01T07:16:51.162Z,1011.03
2022-10-01T07:17:51.078Z,1010.86
2022-10-01T07:18:51.034Z,1011.01
2022-10-01T07:19:51.069Z,1010.95
2022-10-01T07:20:51.062Z,1010.92
2022-10-01T07:21:51.050Z,1010.90
2022-10-01T07:22:51.035Z,1010.92
2022-10-01T07:23:50.990Z,1010.99
2022-10-01T07:24:51.120Z,1011.04
2022-10-01T07:25:50.995Z,1010.92
2022-10-01T07:26:51.033Z,1010.98
2022-10-01T07:27:50.973Z,1010.92
2022-10-01T07:28:51.019Z,1010.92
2022-10-01T07:29:50.905Z,1010.89
2022-10-01T07:30:50.883Z,1010.80
2022-10-01T07:31:50.939Z,1010.86
2022-10-01T07:32:50.852Z,1010.90
2022-10-01T07:33:50.954Z,1010.76
2022-10-01T07:34:51.062Z,1010.80
2022-10-01T07:35:50.870Z,1010.74
2022-10-01T07:36:50.829Z,1010.65
2022-10-01T07:37:50.856Z,1010.77
2022-10-01T07:38:50.783Z,1010.78
2022-10-01T07:39:50.835Z,1010.85
2022-10-01T07:40:50.808Z,1010.67
2022-10-01T07:41:50.758Z,1010.62
2022-10-01T07:42:50.725Z,1010.45
2022-10-01T07:43:50.802Z,1010.55
2022-10-01T07:44:50.704Z,1010.49
2022-10-01T07:45:50.753Z,1010.52
2022-10-01T07:46:50.734Z,1010.43
2022-10-01T07:47:50.680Z,1010.57
2022-10-01T07:48:50.651Z,1010.59
2022-10-01T07:49:50.648Z,1010.54
2022-10-01T07:50:50.671Z,1010.50
2022-10-01T07:51:50.625Z,1010.52
2022-10-01T07:52:50.650Z,1010.55
2022-10-01T07:53:50.608Z,1010.54
2022-10-01T07:54:50.562Z,1010.49
2022-10-01T07:55:50.605Z,1010.56
2022-10-01T07:56:50.537Z,1010.59
2022-10-01T07:57:50.725Z,1010.59
2022-10-01T07:58:50.638Z,1010.59
2022-10-01T07:59:55.536Z,1010.64
2022-10-01T08:00:50.547Z,1010.69
2022-10-01T08:01:50.555Z,1010.67
2022-10-01T08:02:50.563Z,1010.70
2022-10-01T08:03:50.495Z,1010.68
2022-10-01T08:04:50.505Z,1010.66
2022-10-01T08:05:50.476Z,1010.64
2022-10-01T08:06:50.445Z,1010.74
2022-10-01T08:07:50.406Z,1010.68
2022-10-01T08:08:50.605Z,1010.70
2022-10-01T08:09:50.388Z,1010.71
2022-10-01T08:10:50.748Z,1010.74
2022-10-01T08:11:50.367Z,1010.70
2022-10-01T08:12:50.471Z,1010.69
2022-10-01T08:13:50.351Z,1010.73
2022-10-01T08:14:50.324Z,1010.66
2022-10-01T08:15:50.545Z,1010.61
2022-10-01T08:16:50.343Z,1010.60
2022-10-01T08:17:50.314Z,1010.67
2022-10-01T08:18:50.267Z,1010.64
2022-10-01T08:19:50.285Z,1010.68
2022-10-01T08:20:50.250Z,1010.68
2022-10-01T08:21:50.265Z,1010.64
2022-10-01T08:22:50.278Z,1010.59
2022-10-01T08:23:50.230Z,1010.51
2022-10-01T08:24:50.202Z,1010.48
2022-10-01T08:27:06.279Z,1010.87
2022-10-01T08:28:07.373Z,1010.69
2022-10-01T08:29:07.225Z,1010.68
2022-10-01T08:30:07.215Z,1010.78
2022-10-01T08:31:07.206Z,1010.68
2022-10-01T08:32:07.274Z,1010.71
2022-10-01T08:33:07.194Z,1010.67
2022-10-01T08:34:07.266Z,1010.64
2022-10-01T08:35:07.141Z,1010.72
2022-10-01T08:36:07.140Z,1010.71
2022-10-01T08:37:07.136Z,1010.63
2022-10-01T08:38:07.112Z,1010.60
2022-10-01T08:39:07.093Z,1010.63
2022-10-01T08:40:07.144Z,1010.62
2022-10-01T08:41:07.119Z,1010.64
2022-10-01T08:42:07.058Z,1010.68
2022-10-01T08:43:07.058Z,1010.80
2022-10-01T08:44:07.029Z,1010.78
2022-10-01T08:45:07.041Z,1010.81
2022-10-01T08:46:07.116Z,1010.86
2022-10-01T08:47:07.007Z,1010.91
2022-10-01T08:48:07.005Z,1010.84
2022-10-01T08:49:06.960Z,1010.79
2022-10-01T08:50:06.984Z,1010.76
2022-10-01T08:51:06.945Z,1010.81
2022-10-01T08:52:06.961Z,1010.80
2022-10-01T08:53:06.906Z,1010.82
2022-10-01T08:54:06.917Z,1010.90
2022-10-01T08:55:06.917Z,1010.89
2022-10-01T08:56:06.892Z,1010.94
2022-10-01T08:57:06.921Z,1010.92
2022-10-01T08:58:06.908Z,1010.94
2022-10-01T08:59:06.831Z,1010.99
2022-10-01T09:00:06.838Z,1010.94
2022-10-01T09:01:06.843Z,1010.92
2022-10-01T09:02:06.846Z,1010.99
2022-10-01T09:03:06.834Z,1010.98
2022-10-01T09:04:06.815Z,1011.11
2022-10-01T09:05:06.744Z,1011.08
2022-10-01T09:06:06.775Z,1011.11
2022-10-01T09:07:06.717Z,1011.10
2022-10-01T09:08:06.806Z,1011.10
2022-10-01T09:09:06.735Z,1010.95
2022-10-01T09:10:06.743Z,1011.03
2022-10-01T09:11:06.703Z,1011.08
2022-10-01T09:12:06.722Z,1011.08
2022-10-01T09:13:06.663Z,1011.11
2022-10-01T09:14:06.691Z,1011.10
2022-10-01T09:15:06.650Z,1011.12
2022-10-01T09:16:06.658Z,1011.17
2022-10-01T09:17:06.617Z,1011.14
2022-10-01T09:18:06.609Z,1011.20
2022-10-01T09:19:06.568Z,1011.16
2022-10-01T09:20:06.604Z,1011.26
2022-10-01T09:21:06.599Z,1011.09
2022-10-01T09:22:06.537Z,1011.02
2022-10-01T09:23:06.573Z,1011.08
2022-10-01T09:24:06.523Z,1011.15
2022-10-01T09:25:06.546Z,1011.15
2022-10-01T09:26:06.530Z,1011.15
2022-10-01T09:27:06.482Z,1011.19
2022-10-01T09:28:06.549Z,1011.28
2022-10-01T09:29:06.565Z,1011.28
2022-10-01T09:30:06.455Z,1011.29
2022-10-01T09:31:06.530Z,1011.24
2022-10-01T09:32:06.460Z,1011.22
2022-10-01T09:33:06.424Z,1011.03
2022-10-01T09:34:06.386Z,1011.16
2022-10-01T09:35:06.377Z,1011.24
2022-10-01T09:36:06.358Z,1011.22
2022-10-01T09:37:06.408Z,1011.32
2022-10-01T09:38:06.339Z,1011.25
2022-10-01T09:39:06.304Z,1011.26
2022-10-01T09:40:06.315Z,1011.33
2022-10-01T09:41:06.288Z,1011.29
2022-10-01T09:42:06.282Z,1011.34
2022-10-01T09:43:06.299Z,1011.31
2022-10-01T09:44:06.270Z,1011.27
2022-10-01T09:45:06.305Z,1011.25
2022-10-01T09:46:06.354Z,1011.18
2022-10-01T09:47:06.216Z,1011.22
2022-10-01T09:48:06.195Z,1011.15
2022-10-01T09:49:06.238Z,1011.18
2022-10-01T09:50:06.224Z,1011.28
2022-10-01T09:51:06.168Z,1011.24
2022-10-01T09:52:06.243Z,1011.26
2022-10-01T09:53:06.138Z,1011.32
2022-10-01T09:54:06.150Z,1011.32
2022-10-01T09:55:06.140Z,1011.31
2022-10-01T09:56:06.108Z,1011.11
2022-10-01T09:57:06.073Z,1011.16
2022-10-01T09:58:06.099Z,1011.15
2022-10-01T09:59:06.056Z,1011.17
2022-10-01T10:00:06.067Z,1011.09
2022-10-01T10:01:06.084Z,1011.06
2022-10-01T10:02:06.124Z,1011.21
2022-10-01T10:03:06.201Z,1011.23
2022-10-01T10:04:06.008Z,1011.30
2022-10-01T10:05:05.961Z,1011.27
2022-10-01T10:06:06.021Z,1011.36
2022-10-01T10:07:05.989Z,1011.32
2022-10-01T10:08:05.947Z,1011.29
2022-10-01T10:09:05.913Z,1011.31
2022-10-01T10:10:05.951Z,1011.24
2022-10-01T10:11:05.897Z,1011.32
2022-10-01T10:12:05.907Z,1011.27
2022-10-01T10:13:05.899Z,1011.38
2022-10-01T10:14:05.860Z,1011.30
2022-10-01T10:15:05.855Z,1011.38
2022-10-01T10:16:05.998Z,1011.31
2022-10-01T10:17:05.816Z,1011.25
2022-10-01T10:18:05.829Z,1011.26
2022-10-01T10:19:05.817Z,1011.30
2022-10-01T10:20:05.785Z,1011.28
2022-10-01T10:21:05.781Z,1011.36
2022-10-01T10:22:05.846Z,1011.31
2022-10-01T10:23:05.739Z,1011.33
2022-10-01T10:24:05.727Z,1011.35
2022-10-01T10:25:05.760Z,1011.41
2022-10-01T10:26:05.724Z,1011.36
2022-10-01T10:27:05.703Z,1011.38
2022-10-01T10:28:05.772Z,1011.38
2022-10-01T10:29:05.693Z,1011.44
2022-10-01T10:30:05.665Z,1011.49
2022-10-01T10:31:05.791Z,1011.44
2022-10-01T10:32:05.642Z,1011.43
2022-10-01T10:33:05.657Z,1011.43
2022-10-01T10:34:05.616Z,1011.46
2022-10-01T10:35:05.572Z,1011.50
2022-10-01T10:36:05.611Z,1011.48
2022-10-01T10:37:05.586Z,1011.51
2022-10-01T10:38:05.554Z,1011.56
2022-10-01T10:39:05.537Z,1011.55
2022-10-01T10:40:05.542Z,1011.55
2022-10-01T10:41:05.551Z,1011.62
2022-10-01T10:42:05.558Z,1011.60
2022-10-01T10:43:05.537Z,1011.65
2022-10-01T10:44:05.550Z,1011.66
2022-10-01T10:45:05.444Z,1011.54
2022-10-01T10:46:05.457Z,1011.62
2022-10-01T10:47:05.456Z,1011.55
2022-10-01T10:48:05.461Z,1011.58
2022-10-01T10:49:05.394Z,1011.63
2022-10-01T10:50:05.421Z,1011.63
2022-10-01T10:51:05.416Z,1011.58
2022-10-01T10:52:05.406Z,1011.65
2022-10-01T10:53:05.370Z,1011.66
2022-10-01T10:54:05.372Z,1011.69
2022-10-01T10:55:05.324Z,1011.68
2022-10-01T10:56:05.333Z,1011.71
2022-10-01T10:57:05.287Z,1011.72
2022-10-01T10:58:05.378Z,1011.70
2022-10-01T10:59:05.286Z,1011.75
2022-10-01T11:00:05.292Z,1011.75
2022-10-01T11:01:05.309Z,1011.70
2022-10-01T11:02:05.446Z,1011.64
2022-10-01T11:03:05.229Z,1011.68
2022-10-01T11:04:05.279Z,1011.74
2022-10-01T11:05:05.212Z,1011.75
2022-10-01T11:06:05.189Z,1011.73
2022-10-01T11:07:05.232Z,1011.75
2022-10-01T11:08:05.154Z,1011.79
2022-10-01T11:09:05.248Z,1011.80
2022-10-01T11:10:05.171Z,1011.72
2022-10-01T11:11:05.101Z,1011.80
2022-10-01T11:12:05.198Z,1011.76
2022-10-01T11:13:05.094Z,1011.76
2022-10-01T11:14:05.129Z,1011.83
2022-10-01T11:15:05.138Z,1011.83
2022-10-01T11:16:05.089Z,1011.88
2022-10-01T11:17:05.058Z,1011.88
2022-10-01T11:18:05.053Z,1011.83
2022-10-01T11:19:05.023Z,1011.81
2022-10-01T11:20:05.027Z,1011.80
2022-10-01T11:21:05.080Z,1011.81
2022-10-01T11:22:05.034Z,1011.85
2022-10-01T11:23:04.954Z,1011.79
2022-10-01T11:24:04.948Z,1011.78
2022-10-01T11:25:04.919Z,1011.77
2022-10-01T11:26:05.091Z,1011.69
2022-10-01T11:27:04.913Z,1011.81
2022-10-01T11:28:04.965Z,1011.76
2022-10-01T11:29:04.865Z,1011.72
2022-10-01T11:30:04.862Z,1011.75
2022-10-01T11:31:04.925Z,1011.72
2022-10-01T11:32:04.872Z,1011.78
2022-10-01T11:33:04.820Z,1011.81
2022-10-01T11:34:04.808Z,1011.77
2022-10-01T11:35:04.870Z,1011.76
2022-10-01T11:36:04.786Z,1011.79
2022-10-01T11:37:04.764Z,1011.73
2022-10-01T11:38:04.835Z,1011.73
2022-10-01T11:39:04.770Z,1011.66
2022-10-01T11:40:04.753Z,1011.74
2022-10-01T11:41:04.779Z,1011.70
2022-10-01T11:42:04.703Z,1011.64
2022-10-01T11:43:04.743Z,1011.70
2022-10-01T11:44:04.740Z,1011.76
2022-10-01T11:45:04.682Z,1011.73
2022-10-01T11:46:04.902Z,1011.80
2022-10-01T11:47:04.643Z,1011.78
2022-10-01T11:48:04.753Z,1011.79
2022-10-01T11:49:04.653Z,1011.85
2022-10-01T11:50:04.710Z,1011.78
2022-10-01T11:51:04.573Z,1011.72
2022-10-01T11:52:04.600Z,1011.84
2022-10-01T11:53:04.566Z,1011.80
2022-10-01T11:54:04.550Z,1011.79
2022-10-01T11:55:04.619Z,1011.79
2022-10-01T11:56:04.584Z,1011.81
2022-10-01T11:57:04.553Z,1011.78
2022-10-01T11:58:04.517Z,1011.80
2022-10-01T11:59:04.501Z,1011.73
2022-10-01T12:00:04.527Z,1011.74
2022-10-01T12:01:04.445Z,1011.79
2022-10-01T12:02:04.554Z,1011.77
2022-10-01T12:03:04.432Z,1011.77
2022-10-01T12:04:04.427Z,1011.73
2022-10-01T12:05:04.537Z,1011.85
2022-10-01T12:06:04.393Z,1011.78
2022-10-01T12:07:04.395Z,1011.81